sensor_id;sensor_type;location;lat;lon;timestamp;P1;durP1;ratioP1;P2;durP2;ratioP2
48317;SDS011;34127;47.412;9.730;2023-11-21T00:01:54;6.07;;;2.20;;
48317;SDS011;34127;47.412;9.730;2023-11-21T00:04:21;7.63;;;1.83;;
48317;SDS011;34127;47.412;9.730;2023-11-21T00:06:47;9.75;;;2.35;;
48317;SDS011;34127;47.412;9.730;2023-11-21T00:09:13;9.35;;;2.22;;
48317;SDS011;34127;47.412;9.730;2023-11-21T00:11:43;4.95;;;2.35;;
48317;SDS011;34127;47.412;9.730;2023-11-21T00:14:12;4.22;;;1.67;;
48317;SDS011;34127;47.412;9.730;2023-11-21T00:16:40;8.48;;;2.00;;
48317;SDS011;34127;47.412;9.730;2023-11-21T00:19:06;7.13;;;1.95;;
48317;SDS011;34127;47.412;9.730;2023-11-21T00:21:32;6.45;;;2.05;;
48317;SDS011;34127;47.412;9.730;2023-11-21T00:23:58;5.75;;;1.90;;
48317;SDS011;34127;47.412;9.730;2023-11-21T00:26:24;8.60;;;1.95;;
48317;SDS011;34127;47.412;9.730;2023-11-21T00:28:51;5.13;;;1.85;;
48317;SDS011;34127;47.412;9.730;2023-11-21T00:31:17;8.00;;;1.90;;
48317;SDS011;34127;47.412;9.730;2023-11-21T00:33:43;7.28;;;1.77;;
48317;SDS011;34127;47.412;9.730;2023-11-21T00:36:09;5.55;;;1.70;;
48317;SDS011;34127;47.412;9.730;2023-11-21T00:38:36;7.80;;;1.92;;
48317;SDS011;34127;47.412;9.730;2023-11-21T00:41:05;3.95;;;1.80;;
48317;SDS011;34127;47.412;9.730;2023-11-21T00:43:31;3.63;;;1.70;;
48317;SDS011;34127;47.412;9.730;2023-11-21T00:45:58;4.43;;;2.05;;
48317;SDS011;34127;47.412;9.730;2023-11-21T00:48:24;5.38;;;1.83;;
48317;SDS011;34127;47.412;9.730;2023-11-21T00:50:51;5.55;;;2.03;;
48317;SDS011;34127;47.412;9.730;2023-11-21T00:53:17;5.05;;;1.83;;
48317;SDS011;34127;47.412;9.730;2023-11-21T00:55:43;4.18;;;1.63;;
48317;SDS011;34127;47.412;9.730;2023-11-21T00:58:09;2.25;;;1.40;;
48317;SDS011;34127;47.412;9.730;2023-11-21T01:00:35;6.07;;;1.73;;
48317;SDS011;34127;47.412;9.730;2023-11-21T01:03:04;7.85;;;2.13;;
48317;SDS011;34127;47.412;9.730;2023-11-21T01:05:32;5.53;;;2.33;;
48317;SDS011;34127;47.412;9.730;2023-11-21T01:07:59;8.82;;;2.50;;
48317;SDS011;34127;47.412;9.730;2023-11-21T01:10:25;4.93;;;1.50;;
48317;SDS011;34127;47.412;9.730;2023-11-21T01:12:51;4.90;;;1.63;;
48317;SDS011;34127;47.412;9.730;2023-11-21T01:15:17;7.18;;;1.70;;
48317;SDS011;34127;47.412;9.730;2023-11-21T01:17:43;5.15;;;1.85;;
48317;SDS011;34127;47.412;9.730;2023-11-21T01:20:10;4.93;;;1.92;;
48317;SDS011;34127;47.412;9.730;2023-11-21T01:22:38;5.35;;;1.90;;
48317;SDS011;34127;47.412;9.730;2023-11-21T01:25:04;3.88;;;1.50;;
48317;SDS011;34127;47.412;9.730;2023-11-21T01:27:32;6.60;;;1.75;;
48317;SDS011;34127;47.412;9.730;2023-11-21T01:29:59;6.20;;;1.80;;
48317;SDS011;34127;47.412;9.730;2023-11-21T01:32:25;6.82;;;2.17;;
48317;SDS011;34127;47.412;9.730;2023-11-21T01:34:51;5.05;;;1.50;;
48317;SDS011;34127;47.412;9.730;2023-11-21T01:37:17;3.55;;;1.60;;
48317;SDS011;34127;47.412;9.730;2023-11-21T01:39:43;4.03;;;1.60;;
48317;SDS011;34127;47.412;9.730;2023-11-21T01:42:10;6.63;;;1.90;;
48317;SDS011;34127;47.412;9.730;2023-11-21T01:44:37;6.20;;;1.80;;
48317;SDS011;34127;47.412;9.730;2023-11-21T01:47:04;6.43;;;1.70;;
48317;SDS011;34127;47.412;9.730;2023-11-21T01:49:32;5.95;;;1.80;;
48317;SDS011;34127;47.412;9.730;2023-11-21T01:51:58;4.78;;;1.45;;
48317;SDS011;34127;47.412;9.730;2023-11-21T01:54:25;5.55;;;1.60;;
48317;SDS011;34127;47.412;9.730;2023-11-21T01:56:51;6.20;;;1.83;;
48317;SDS011;34127;47.412;9.730;2023-11-21T01:59:19;3.80;;;1.30;;
48317;SDS011;34127;47.412;9.730;2023-11-21T02:01:48;6.70;;;1.88;;
48317;SDS011;34127;47.412;9.730;2023-11-21T02:04:15;4.85;;;2.00;;
48317;SDS011;34127;47.412;9.730;2023-11-21T02:06:41;8.35;;;1.73;;
48317;SDS011;34127;47.412;9.730;2023-11-21T02:09:08;6.70;;;1.77;;
48317;SDS011;34127;47.412;9.730;2023-11-21T02:11:34;7.28;;;1.85;;
48317;SDS011;34127;47.412;9.730;2023-11-21T02:14:00;6.07;;;2.03;;
48317;SDS011;34127;47.412;9.730;2023-11-21T02:16:26;4.13;;;1.65;;
48317;SDS011;34127;47.412;9.730;2023-11-21T02:18:56;7.28;;;2.25;;
48317;SDS011;34127;47.412;9.730;2023-11-21T02:21:22;4.40;;;1.67;;
48317;SDS011;34127;47.412;9.730;2023-11-21T02:23:49;5.90;;;1.88;;
48317;SDS011;34127;47.412;9.730;2023-11-21T02:26:16;5.63;;;1.60;;
48317;SDS011;34127;47.412;9.730;2023-11-21T02:28:42;6.70;;;1.65;;
48317;SDS011;34127;47.412;9.730;2023-11-21T02:31:08;5.93;;;1.90;;
48317;SDS011;34127;47.412;9.730;2023-11-21T02:33:34;3.72;;;1.60;;
48317;SDS011;34127;47.412;9.730;2023-11-21T02:36:01;4.30;;;1.58;;
48317;SDS011;34127;47.412;9.730;2023-11-21T02:38:27;6.32;;;1.63;;
48317;SDS011;34127;47.412;9.730;2023-11-21T02:40:53;5.43;;;1.70;;
48317;SDS011;34127;47.412;9.730;2023-11-21T02:43:20;9.32;;;2.42;;
48317;SDS011;34127;47.412;9.730;2023-11-21T02:45:46;5.20;;;1.60;;
48317;SDS011;34127;47.412;9.730;2023-11-21T02:48:12;4.45;;;1.55;;
48317;SDS011;34127;47.412;9.730;2023-11-21T02:50:38;5.60;;;1.50;;
48317;SDS011;34127;47.412;9.730;2023-11-21T02:53:04;5.18;;;1.63;;
48317;SDS011;34127;47.412;9.730;2023-11-21T02:55:33;8.00;;;1.90;;
48317;SDS011;34127;47.412;9.730;2023-11-21T02:58:02;8.88;;;2.22;;
48317;SDS011;34127;47.412;9.730;2023-11-21T03:00:29;6.28;;;2.40;;
48317;SDS011;34127;47.412;9.730;2023-11-21T03:02:55;6.25;;;1.90;;
48317;SDS011;34127;47.412;9.730;2023-11-21T03:05:21;4.18;;;1.77;;
48317;SDS011;34127;47.412;9.730;2023-11-21T03:07:47;7.53;;;1.90;;
48317;SDS011;34127;47.412;9.730;2023-11-21T03:10:13;4.75;;;1.50;;
48317;SDS011;34127;47.412;9.730;2023-11-21T03:12:39;4.78;;;1.67;;
48317;SDS011;34127;47.412;9.730;2023-11-21T03:15:06;3.65;;;1.40;;
48317;SDS011;34127;47.412;9.730;2023-11-21T03:17:32;6.18;;;1.70;;
48317;SDS011;34127;47.412;9.730;2023-11-21T03:19:59;4.30;;;1.58;;
48317;SDS011;34127;47.412;9.730;2023-11-21T03:22:25;5.57;;;1.70;;
48317;SDS011;34127;47.412;9.730;2023-11-21T03:24:52;4.55;;;1.52;;
48317;SDS011;34127;47.412;9.730;2023-11-21T03:27:18;4.72;;;1.70;;
48317;SDS011;34127;47.412;9.730;2023-11-21T03:29:44;7.53;;;1.60;;
48317;SDS011;34127;47.412;9.730;2023-11-21T03:32:11;5.22;;;1.83;;
48317;SDS011;34127;47.412;9.730;2023-11-21T03:34:52;7.30;;;2.05;;
48317;SDS011;34127;47.412;9.730;2023-11-21T03:37:20;4.45;;;1.75;;
48317;SDS011;34127;47.412;9.730;2023-11-21T03:39:46;6.20;;;1.60;;
48317;SDS011;34127;47.412;9.730;2023-11-21T03:42:12;4.88;;;1.58;;
48317;SDS011;34127;47.412;9.730;2023-11-21T03:44:38;5.38;;;1.80;;
48317;SDS011;34127;47.412;9.730;2023-11-21T03:47:04;7.75;;;2.03;;
48317;SDS011;34127;47.412;9.730;2023-11-21T03:49:31;5.35;;;1.67;;
48317;SDS011;34127;47.412;9.730;2023-11-21T03:51:57;7.00;;;1.77;;
48317;SDS011;34127;47.412;9.730;2023-11-21T03:54:23;5.43;;;2.13;;
48317;SDS011;34127;47.412;9.730;2023-11-21T03:56:49;3.67;;;1.48;;
48317;SDS011;34127;47.412;9.730;2023-11-21T03:59:17;10.02;;;1.90;;
48317;SDS011;34127;47.412;9.730;2023-11-21T04:01:43;3.58;;;1.58;;
48317;SDS011;34127;47.412;9.730;2023-11-21T04:04:09;5.93;;;2.17;;
48317;SDS011;34127;47.412;9.730;2023-11-21T04:06:35;6.75;;;1.80;;
48317;SDS011;34127;47.412;9.730;2023-11-21T04:09:02;4.55;;;1.80;;
48317;SDS011;34127;47.412;9.730;2023-11-21T04:11:29;8.27;;;2.10;;
48317;SDS011;34127;47.412;9.730;2023-11-21T04:13:55;5.38;;;1.80;;
48317;SDS011;34127;47.412;9.730;2023-11-21T04:16:21;5.47;;;1.60;;
48317;SDS011;34127;47.412;9.730;2023-11-21T04:18:47;5.03;;;1.98;;
48317;SDS011;34127;47.412;9.730;2023-11-21T04:21:14;4.70;;;1.70;;
48317;SDS011;34127;47.412;9.730;2023-11-21T04:23:40;5.60;;;1.42;;
48317;SDS011;34127;47.412;9.730;2023-11-21T04:26:06;4.93;;;1.73;;
48317;SDS011;34127;47.412;9.730;2023-11-21T04:28:32;6.60;;;1.90;;
48317;SDS011;34127;47.412;9.730;2023-11-21T04:30:58;4.80;;;1.65;;
48317;SDS011;34127;47.412;9.730;2023-11-21T04:33:24;5.32;;;1.80;;
48317;SDS011;34127;47.412;9.730;2023-11-21T04:35:50;5.50;;;1.45;;
48317;SDS011;34127;47.412;9.730;2023-11-21T04:38:17;5.38;;;1.60;;
48317;SDS011;34127;47.412;9.730;2023-11-21T04:40:44;5.95;;;1.60;;
48317;SDS011;34127;47.412;9.730;2023-11-21T04:43:10;7.63;;;2.05;;
48317;SDS011;34127;47.412;9.730;2023-11-21T04:45:36;3.58;;;1.80;;
48317;SDS011;34127;47.412;9.730;2023-11-21T04:48:03;5.68;;;2.30;;
48317;SDS011;34127;47.412;9.730;2023-11-21T04:50:30;6.50;;;2.53;;
48317;SDS011;34127;47.412;9.730;2023-11-21T04:52:56;5.78;;;2.42;;
48317;SDS011;34127;47.412;9.730;2023-11-21T04:55:22;9.65;;;2.30;;
48317;SDS011;34127;47.412;9.730;2023-11-21T04:57:48;5.50;;;2.40;;
48317;SDS011;34127;47.412;9.730;2023-11-21T05:00:15;5.57;;;2.28;;
48317;SDS011;34127;47.412;9.730;2023-11-21T05:02:41;8.60;;;2.78;;
48317;SDS011;34127;47.412;9.730;2023-11-21T05:05:09;8.25;;;2.17;;
48317;SDS011;34127;47.412;9.730;2023-11-21T05:07:35;4.60;;;2.00;;
48317;SDS011;34127;47.412;9.730;2023-11-21T05:10:03;6.45;;;2.03;;
48317;SDS011;34127;47.412;9.730;2023-11-21T05:12:31;10.13;;;2.45;;
48317;SDS011;34127;47.412;9.730;2023-11-21T05:15:02;8.45;;;2.55;;
48317;SDS011;34127;47.412;9.730;2023-11-21T05:17:33;8.27;;;2.88;;
48317;SDS011;34127;47.412;9.730;2023-11-21T05:20:00;5.75;;;2.67;;
48317;SDS011;34127;47.412;9.730;2023-11-21T05:22:29;6.30;;;2.58;;
48317;SDS011;34127;47.412;9.730;2023-11-21T05:24:55;9.52;;;2.50;;
48317;SDS011;34127;47.412;9.730;2023-11-21T05:27:21;6.35;;;2.40;;
48317;SDS011;34127;47.412;9.730;2023-11-21T05:29:47;7.30;;;2.22;;
48317;SDS011;34127;47.412;9.730;2023-11-21T05:32:13;7.57;;;2.30;;
48317;SDS011;34127;47.412;9.730;2023-11-21T05:34:39;7.65;;;3.13;;
48317;SDS011;34127;47.412;9.730;2023-11-21T05:37:06;9.30;;;2.47;;
48317;SDS011;34127;47.412;9.730;2023-11-21T05:39:32;7.35;;;2.92;;
48317;SDS011;34127;47.412;9.730;2023-11-21T05:41:58;9.82;;;4.28;;
48317;SDS011;34127;47.412;9.730;2023-11-21T05:44:25;19.55;;;3.85;;
48317;SDS011;34127;47.412;9.730;2023-11-21T05:46:51;4.75;;;2.50;;
48317;SDS011;34127;47.412;9.730;2023-11-21T05:49:18;5.95;;;2.85;;
48317;SDS011;34127;47.412;9.730;2023-11-21T05:51:47;4.47;;;2.35;;
48317;SDS011;34127;47.412;9.730;2023-11-21T05:54:13;7.03;;;1.95;;
48317;SDS011;34127;47.412;9.730;2023-11-21T05:56:39;7.95;;;2.20;;
48317;SDS011;34127;47.412;9.730;2023-11-21T05:59:05;4.63;;;2.10;;
48317;SDS011;34127;47.412;9.730;2023-11-21T06:01:31;6.22;;;1.90;;
48317;SDS011;34127;47.412;9.730;2023-11-21T06:03:58;4.32;;;1.90;;
48317;SDS011;34127;47.412;9.730;2023-11-21T06:06:24;3.95;;;1.70;;
48317;SDS011;34127;47.412;9.730;2023-11-21T06:08:51;4.80;;;1.80;;
48317;SDS011;34127;47.412;9.730;2023-11-21T06:11:17;3.00;;;1.60;;
48317;SDS011;34127;47.412;9.730;2023-11-21T06:13:43;3.05;;;1.50;;
48317;SDS011;34127;47.412;9.730;2023-11-21T06:16:10;5.28;;;2.45;;
48317;SDS011;34127;47.412;9.730;2023-11-21T06:18:38;4.43;;;1.95;;
48317;SDS011;34127;47.412;9.730;2023-11-21T06:21:05;4.18;;;1.70;;
48317;SDS011;34127;47.412;9.730;2023-11-21T06:23:31;3.80;;;1.70;;
48317;SDS011;34127;47.412;9.730;2023-11-21T06:25:57;4.30;;;1.67;;
48317;SDS011;34127;47.412;9.730;2023-11-21T06:28:23;4.57;;;1.67;;
48317;SDS011;34127;47.412;9.730;2023-11-21T06:30:53;4.68;;;1.60;;
48317;SDS011;34127;47.412;9.730;2023-11-21T06:33:20;5.45;;;1.90;;
48317;SDS011;34127;47.412;9.730;2023-11-21T06:35:49;4.57;;;1.77;;
48317;SDS011;34127;47.412;9.730;2023-11-21T06:38:27;5.78;;;1.80;;
48317;SDS011;34127;47.412;9.730;2023-11-21T06:41:18;4.30;;;2.05;;
48317;SDS011;34127;47.412;9.730;2023-11-21T06:44:12;4.40;;;2.22;;
48317;SDS011;34127;47.412;9.730;2023-11-21T06:46:39;6.78;;;1.95;;
48317;SDS011;34127;47.412;9.730;2023-11-21T06:49:08;5.80;;;1.90;;
48317;SDS011;34127;47.412;9.730;2023-11-21T06:51:38;4.32;;;1.60;;
48317;SDS011;34127;47.412;9.730;2023-11-21T06:54:15;2.90;;;1.58;;
48317;SDS011;34127;47.412;9.730;2023-11-21T06:56:42;4.25;;;2.58;;
48317;SDS011;34127;47.412;9.730;2023-11-21T06:59:08;4.20;;;1.85;;
48317;SDS011;34127;47.412;9.730;2023-11-21T07:02:15;3.90;;;1.55;;
48317;SDS011;34127;47.412;9.730;2023-11-21T07:04:52;5.57;;;2.20;;
48317;SDS011;34127;47.412;9.730;2023-11-21T07:07:36;5.18;;;1.55;;
48317;SDS011;34127;47.412;9.730;2023-11-21T07:10:10;4.60;;;1.55;;
48317;SDS011;34127;47.412;9.730;2023-11-21T07:12:41;3.45;;;1.50;;
48317;SDS011;34127;47.412;9.730;2023-11-21T07:15:09;4.10;;;1.65;;
48317;SDS011;34127;47.412;9.730;2023-11-21T07:17:38;17.65;;;2.42;;
48317;SDS011;34127;47.412;9.730;2023-11-21T07:20:07;5.47;;;2.10;;
48317;SDS011;34127;47.412;9.730;2023-11-21T07:22:35;4.45;;;2.25;;
48317;SDS011;34127;47.412;9.730;2023-11-21T07:25:05;5.25;;;2.33;;
48317;SDS011;34127;47.412;9.730;2023-11-21T07:27:35;7.68;;;3.65;;
48317;SDS011;34127;47.412;9.730;2023-11-21T07:30:16;8.15;;;3.38;;
48317;SDS011;34127;47.412;9.730;2023-11-21T07:32:53;11.13;;;4.47;;
48317;SDS011;34127;47.412;9.730;2023-11-21T07:35:21;9.77;;;5.55;;
48317;SDS011;34127;47.412;9.730;2023-11-21T07:37:49;14.05;;;5.35;;
48317;SDS011;34127;47.412;9.730;2023-11-21T07:40:18;11.93;;;6.32;;
48317;SDS011;34127;47.412;9.730;2023-11-21T07:43:05;15.50;;;6.65;;
48317;SDS011;34127;47.412;9.730;2023-11-21T07:45:52;12.05;;;6.95;;
48317;SDS011;34127;47.412;9.730;2023-11-21T07:49:02;12.25;;;6.45;;
48317;SDS011;34127;47.412;9.730;2023-11-21T07:52:02;14.63;;;6.13;;
48317;SDS011;34127;47.412;9.730;2023-11-21T07:55:00;12.27;;;6.90;;
48317;SDS011;34127;47.412;9.730;2023-11-21T07:58:08;9.93;;;5.93;;
48317;SDS011;34127;47.412;9.730;2023-11-21T08:01:08;13.52;;;5.93;;
48317;SDS011;34127;47.412;9.730;2023-11-21T08:04:11;13.18;;;6.10;;
48317;SDS011;34127;47.412;9.730;2023-11-21T08:07:05;15.82;;;6.20;;
48317;SDS011;34127;47.412;9.730;2023-11-21T08:09:38;10.38;;;4.80;;
48317;SDS011;34127;47.412;9.730;2023-11-21T08:12:12;9.68;;;4.75;;
48317;SDS011;34127;47.412;9.730;2023-11-21T08:14:45;10.05;;;4.82;;
48317;SDS011;34127;47.412;9.730;2023-11-21T08:17:17;9.13;;;5.93;;
48317;SDS011;34127;47.412;9.730;2023-11-21T08:19:48;10.32;;;5.78;;
48317;SDS011;34127;47.412;9.730;2023-11-21T08:22:18;14.60;;;6.07;;
48317;SDS011;34127;47.412;9.730;2023-11-21T08:24:52;12.35;;;6.22;;
48317;SDS011;34127;47.412;9.730;2023-11-21T08:27:24;12.68;;;5.78;;
48317;SDS011;34127;47.412;9.730;2023-11-21T08:29:55;8.18;;;4.15;;
48317;SDS011;34127;47.412;9.730;2023-11-21T08:32:25;6.40;;;2.58;;
48317;SDS011;34127;47.412;9.730;2023-11-21T08:34:51;6.35;;;1.92;;
48317;SDS011;34127;47.412;9.730;2023-11-21T08:37:21;5.35;;;1.90;;
48317;SDS011;34127;47.412;9.730;2023-11-21T08:39:53;7.10;;;2.17;;
48317;SDS011;34127;47.412;9.730;2023-11-21T08:42:36;5.50;;;1.90;;
48317;SDS011;34127;47.412;9.730;2023-11-21T08:47:53;3.25;;;1.63;;
48317;SDS011;34127;47.412;9.730;2023-11-21T08:50:20;5.50;;;1.65;;
48317;SDS011;34127;47.412;9.730;2023-11-21T08:52:50;3.97;;;1.80;;
48317;SDS011;34127;47.412;9.730;2023-11-21T08:55:18;3.67;;;1.60;;
48317;SDS011;34127;47.412;9.730;2023-11-21T08:57:46;5.97;;;1.70;;
48317;SDS011;34127;47.412;9.730;2023-11-21T09:00:13;4.35;;;1.80;;
48317;SDS011;34127;47.412;9.730;2023-11-21T09:02:43;5.75;;;2.10;;
48317;SDS011;34127;47.412;9.730;2023-11-21T09:05:19;5.35;;;2.10;;
48317;SDS011;34127;47.412;9.730;2023-11-21T09:07:46;4.22;;;1.80;;
48317;SDS011;34127;47.412;9.730;2023-11-21T09:10:14;4.22;;;1.65;;
48317;SDS011;34127;47.412;9.730;2023-11-21T09:12:42;8.02;;;1.90;;
48317;SDS011;34127;47.412;9.730;2023-11-21T09:15:12;4.65;;;1.70;;
48317;SDS011;34127;47.412;9.730;2023-11-21T09:17:41;5.03;;;1.75;;
48317;SDS011;34127;47.412;9.730;2023-11-21T09:20:11;4.10;;;1.42;;
48317;SDS011;34127;47.412;9.730;2023-11-21T09:22:40;3.38;;;1.52;;
48317;SDS011;34127;47.412;9.730;2023-11-21T09:25:10;4.95;;;2.08;;
48317;SDS011;34127;47.412;9.730;2023-11-21T09:27:42;4.53;;;1.80;;
48317;SDS011;34127;47.412;9.730;2023-11-21T09:30:17;4.28;;;2.10;;
48317;SDS011;34127;47.412;9.730;2023-11-21T09:32:47;4.00;;;1.60;;
48317;SDS011;34127;47.412;9.730;2023-11-21T09:35:19;5.50;;;1.73;;
48317;SDS011;34127;47.412;9.730;2023-11-21T09:37:50;5.18;;;2.55;;
48317;SDS011;34127;47.412;9.730;2023-11-21T09:40:19;4.82;;;2.17;;
48317;SDS011;34127;47.412;9.730;2023-11-21T09:42:54;5.20;;;2.55;;
48317;SDS011;34127;47.412;9.730;2023-11-21T09:45:26;3.08;;;1.60;;
48317;SDS011;34127;47.412;9.730;2023-11-21T09:47:54;4.55;;;1.60;;
48317;SDS011;34127;47.412;9.730;2023-11-21T09:50:23;5.05;;;1.95;;
48317;SDS011;34127;47.412;9.730;2023-11-21T09:55:46;5.07;;;2.20;;
48317;SDS011;34127;47.412;9.730;2023-11-21T09:58:19;5.38;;;2.00;;
48317;SDS011;34127;47.412;9.730;2023-11-21T10:00:50;3.67;;;1.55;;
48317;SDS011;34127;47.412;9.730;2023-11-21T10:03:19;4.28;;;1.63;;
48317;SDS011;34127;47.412;9.730;2023-11-21T10:05:48;3.45;;;1.80;;
48317;SDS011;34127;47.412;9.730;2023-11-21T10:08:21;5.93;;;1.70;;
48317;SDS011;34127;47.412;9.730;2023-11-21T10:10:49;5.82;;;1.95;;
48317;SDS011;34127;47.412;9.730;2023-11-21T10:13:19;3.63;;;1.90;;
48317;SDS011;34127;47.412;9.730;2023-11-21T10:15:52;3.72;;;1.90;;
48317;SDS011;34127;47.412;9.730;2023-11-21T10:18:25;4.15;;;1.70;;
48317;SDS011;34127;47.412;9.730;2023-11-21T10:20:56;8.38;;;4.43;;
48317;SDS011;34127;47.412;9.730;2023-11-21T10:23:28;7.82;;;3.88;;
48317;SDS011;34127;47.412;9.730;2023-11-21T10:26:01;8.85;;;4.18;;
48317;SDS011;34127;47.412;9.730;2023-11-21T10:28:35;6.05;;;3.53;;
48317;SDS011;34127;47.412;9.730;2023-11-21T10:31:28;7.90;;;3.25;;
48317;SDS011;34127;47.412;9.730;2023-11-21T10:34:19;9.40;;;3.75;;
48317;SDS011;34127;47.412;9.730;2023-11-21T10:36:47;5.68;;;2.47;;
48317;SDS011;34127;47.412;9.730;2023-11-21T10:39:21;6.75;;;2.80;;
48317;SDS011;34127;47.412;9.730;2023-11-21T10:42:02;7.32;;;2.50;;
48317;SDS011;34127;47.412;9.730;2023-11-21T10:45:29;4.57;;;2.45;;
48317;SDS011;34127;47.412;9.730;2023-11-21T10:48:06;6.95;;;2.92;;
48317;SDS011;34127;47.412;9.730;2023-11-21T10:50:45;6.03;;;2.22;;
48317;SDS011;34127;47.412;9.730;2023-11-21T10:53:23;3.15;;;1.75;;
48317;SDS011;34127;47.412;9.730;2023-11-21T10:55:56;3.97;;;2.08;;
48317;SDS011;34127;47.412;9.730;2023-11-21T10:58:29;3.20;;;1.90;;
48317;SDS011;34127;47.412;9.730;2023-11-21T11:01:02;4.53;;;2.33;;
48317;SDS011;34127;47.412;9.730;2023-11-21T11:03:49;4.97;;;2.28;;
48317;SDS011;34127;47.412;9.730;2023-11-21T11:09:58;3.00;;;1.60;;
48317;SDS011;34127;47.412;9.730;2023-11-21T11:13:21;3.17;;;1.70;;
48317;SDS011;34127;47.412;9.730;2023-11-21T11:16:15;3.85;;;2.10;;
48317;SDS011;34127;47.412;9.730;2023-11-21T11:18:54;4.75;;;2.10;;
48317;SDS011;34127;47.412;9.730;2023-11-21T11:38:33;3.58;;;1.88;;
48317;SDS011;34127;47.412;9.730;2023-11-21T11:51:24;2.33;;;1.20;;
48317;SDS011;34127;47.412;9.730;2023-11-21T11:53:51;2.40;;;1.38;;
48317;SDS011;34127;47.412;9.730;2023-11-21T11:56:21;3.67;;;1.20;;
48317;SDS011;34127;47.412;9.730;2023-11-21T11:58:49;2.85;;;1.40;;
48317;SDS011;34127;47.412;9.730;2023-11-21T12:01:20;3.35;;;1.00;;
48317;SDS011;34127;47.412;9.730;2023-11-21T12:06:52;2.03;;;1.02;;
48317;SDS011;34127;47.412;9.730;2023-11-21T12:09:39;2.25;;;1.17;;
48317;SDS011;34127;47.412;9.730;2023-11-21T12:12:09;2.40;;;1.20;;
48317;SDS011;34127;47.412;9.730;2023-11-21T12:14:42;2.13;;;1.00;;
48317;SDS011;34127;47.412;9.730;2023-11-21T12:17:20;1.48;;;0.98;;
48317;SDS011;34127;47.412;9.730;2023-11-21T12:19:53;1.38;;;0.90;;
48317;SDS011;34127;47.412;9.730;2023-11-21T12:22:30;1.63;;;1.00;;
48317;SDS011;34127;47.412;9.730;2023-11-21T12:25:02;4.40;;;0.93;;
48317;SDS011;34127;47.412;9.730;2023-11-21T12:27:34;1.77;;;1.08;;
48317;SDS011;34127;47.412;9.730;2023-11-21T12:33:33;1.98;;;1.10;;
48317;SDS011;34127;47.412;9.730;2023-11-21T12:36:17;2.53;;;1.00;;
48317;SDS011;34127;47.412;9.730;2023-11-21T12:38:46;4.32;;;1.10;;
48317;SDS011;34127;47.412;9.730;2023-11-21T12:41:13;1.15;;;0.82;;
48317;SDS011;34127;47.412;9.730;2023-11-21T12:43:39;2.35;;;1.05;;
48317;SDS011;34127;47.412;9.730;2023-11-21T12:46:10;4.57;;;0.95;;
48317;SDS011;34127;47.412;9.730;2023-11-21T12:48:42;1.80;;;1.00;;
48317;SDS011;34127;47.412;9.730;2023-11-21T12:51:09;1.63;;;1.10;;
48317;SDS011;34127;47.412;9.730;2023-11-21T12:53:43;1.13;;;0.80;;
48317;SDS011;34127;47.412;9.730;2023-11-21T12:56:10;1.55;;;0.80;;
48317;SDS011;34127;47.412;9.730;2023-11-21T12:58:40;2.00;;;1.13;;
48317;SDS011;34127;47.412;9.730;2023-11-21T13:01:18;2.72;;;1.40;;
48317;SDS011;34127;47.412;9.730;2023-11-21T13:03:51;4.10;;;2.03;;
48317;SDS011;34127;47.412;9.730;2023-11-21T13:06:22;3.05;;;1.45;;
48317;SDS011;34127;47.412;9.730;2023-11-21T13:08:56;2.90;;;1.60;;
48317;SDS011;34127;47.412;9.730;2023-11-21T13:11:27;3.58;;;1.60;;
48317;SDS011;34127;47.412;9.730;2023-11-21T13:13:57;5.43;;;2.13;;
48317;SDS011;34127;47.412;9.730;2023-11-21T13:16:26;3.33;;;1.80;;
48317;SDS011;34127;47.412;9.730;2023-11-21T13:18:53;4.25;;;1.50;;
48317;SDS011;34127;47.412;9.730;2023-11-21T13:21:23;3.95;;;1.40;;
48317;SDS011;34127;47.412;9.730;2023-11-21T13:23:58;2.75;;;1.40;;
48317;SDS011;34127;47.412;9.730;2023-11-21T13:27:00;3.10;;;1.50;;
48317;SDS011;34127;47.412;9.730;2023-11-21T13:29:35;3.70;;;1.30;;
48317;SDS011;34127;47.412;9.730;2023-11-21T13:32:06;2.47;;;1.40;;
48317;SDS011;34127;47.412;9.730;2023-11-21T13:34:42;1.88;;;1.10;;
48317;SDS011;34127;47.412;9.730;2023-11-21T13:37:33;3.67;;;1.40;;
48317;SDS011;34127;47.412;9.730;2023-11-21T13:40:05;3.50;;;1.30;;
48317;SDS011;34127;47.412;9.730;2023-11-21T13:42:41;2.85;;;1.33;;
48317;SDS011;34127;47.412;9.730;2023-11-21T13:45:11;3.95;;;1.40;;
48317;SDS011;34127;47.412;9.730;2023-11-21T13:47:41;3.45;;;1.52;;
48317;SDS011;34127;47.412;9.730;2023-11-21T13:50:07;3.45;;;1.50;;
48317;SDS011;34127;47.412;9.730;2023-11-21T13:52:43;2.90;;;1.70;;
48317;SDS011;34127;47.412;9.730;2023-11-21T13:55:12;5.57;;;2.80;;
48317;SDS011;34127;47.412;9.730;2023-11-21T13:57:43;3.53;;;1.60;;
48317;SDS011;34127;47.412;9.730;2023-11-21T14:00:20;3.30;;;1.58;;
48317;SDS011;34127;47.412;9.730;2023-11-21T14:03:22;2.70;;;1.70;;
48317;SDS011;34127;47.412;9.730;2023-11-21T14:06:06;3.92;;;1.55;;
48317;SDS011;34127;47.412;9.730;2023-11-21T14:08:42;2.70;;;1.30;;
48317;SDS011;34127;47.412;9.730;2023-11-21T14:11:11;2.25;;;1.30;;
48317;SDS011;34127;47.412;9.730;2023-11-21T14:13:48;3.60;;;1.40;;
48317;SDS011;34127;47.412;9.730;2023-11-21T14:16:22;3.50;;;1.48;;
48317;SDS011;34127;47.412;9.730;2023-11-21T14:18:58;4.35;;;1.42;;
48317;SDS011;34127;47.412;9.730;2023-11-21T14:21:44;2.38;;;1.40;;
48317;SDS011;34127;47.412;9.730;2023-11-21T14:24:37;5.30;;;1.50;;
48317;SDS011;34127;47.412;9.730;2023-11-21T14:27:13;3.25;;;1.80;;
48317;SDS011;34127;47.412;9.730;2023-11-21T14:29:49;3.13;;;1.60;;
48317;SDS011;34127;47.412;9.730;2023-11-21T14:32:15;6.93;;;2.38;;
48317;SDS011;34127;47.412;9.730;2023-11-21T14:34:42;4.65;;;2.50;;
48317;SDS011;34127;47.412;9.730;2023-11-21T14:37:12;4.40;;;2.65;;
48317;SDS011;34127;47.412;9.730;2023-11-21T14:39:40;7.03;;;2.13;;
48317;SDS011;34127;47.412;9.730;2023-11-21T14:42:10;5.38;;;1.80;;
48317;SDS011;34127;47.412;9.730;2023-11-21T14:44:36;4.00;;;1.90;;
48317;SDS011;34127;47.412;9.730;2023-11-21T14:47:06;4.38;;;1.50;;
48317;SDS011;34127;47.412;9.730;2023-11-21T14:49:42;5.10;;;1.77;;
48317;SDS011;34127;47.412;9.730;2023-11-21T14:52:19;5.22;;;1.65;;
48317;SDS011;34127;47.412;9.730;2023-11-21T14:55:09;3.80;;;1.63;;
48317;SDS011;34127;47.412;9.730;2023-11-21T14:57:44;3.33;;;1.80;;
48317;SDS011;34127;47.412;9.730;2023-11-21T15:00:16;5.22;;;2.38;;
48317;SDS011;34127;47.412;9.730;2023-11-21T15:03:02;5.97;;;2.42;;
48317;SDS011;34127;47.412;9.730;2023-11-21T15:05:28;7.35;;;3.10;;
48317;SDS011;34127;47.412;9.730;2023-11-21T15:07:55;5.43;;;2.75;;
48317;SDS011;34127;47.412;9.730;2023-11-21T15:10:34;7.18;;;2.90;;
48317;SDS011;34127;47.412;9.730;2023-11-21T15:13:19;5.63;;;2.97;;
48317;SDS011;34127;47.412;9.730;2023-11-21T15:15:48;9.32;;;3.45;;
48317;SDS011;34127;47.412;9.730;2023-11-21T15:18:14;8.80;;;3.50;;
48317;SDS011;34127;47.412;9.730;2023-11-21T15:20:41;4.95;;;2.50;;
48317;SDS011;34127;47.412;9.730;2023-11-21T15:23:08;4.68;;;2.67;;
48317;SDS011;34127;47.412;9.730;2023-11-21T15:25:35;5.45;;;2.70;;
48317;SDS011;34127;47.412;9.730;2023-11-21T15:28:02;5.38;;;2.55;;
48317;SDS011;34127;47.412;9.730;2023-11-21T15:30:30;6.45;;;3.00;;
48317;SDS011;34127;47.412;9.730;2023-11-21T15:32:57;6.68;;;2.30;;
48317;SDS011;34127;47.412;9.730;2023-11-21T15:35:23;7.47;;;2.30;;
48317;SDS011;34127;47.412;9.730;2023-11-21T15:37:50;6.00;;;2.28;;
48317;SDS011;34127;47.412;9.730;2023-11-21T15:40:16;3.45;;;2.00;;
48317;SDS011;34127;47.412;9.730;2023-11-21T15:42:42;4.25;;;2.38;;
48317;SDS011;34127;47.412;9.730;2023-11-21T15:45:10;4.60;;;2.58;;
48317;SDS011;34127;47.412;9.730;2023-11-21T15:47:37;9.02;;;3.60;;
48317;SDS011;34127;47.412;9.730;2023-11-21T15:50:03;8.23;;;3.92;;
48317;SDS011;34127;47.412;9.730;2023-11-21T15:52:33;7.97;;;3.90;;
48317;SDS011;34127;47.412;9.730;2023-11-21T15:54:59;7.45;;;4.15;;